Time;durP1;ratioP1;P1;durP2;ratioP2;P2;SDS_P1;SDS_P2;PMS_P1;PMS_P2;Temp;Humidity;BMP_temperature;BMP_pressure;BME280_temperature;BME280_humidity;BME280_pressure;Samples;Min_cycle;Max_cycle;Signal;HPM_P1;HPM_P2
2023/03/20 00:01:13;;;;;;;4.40;1.25;;;;;;;;;;4954189;29;20027;-69
2023/03/20 00:03:40;;;;;;;3.80;1.13;;;;;;;;;;4954186;29;20104;-69
2023/03/20 00:06:12;;;;;;;3.10;0.90;;;;;;;;;;4953944;29;20031;-69
2023/03/20 00:08:39;;;;;;;2.65;1.10;;;;;;;;;;4954378;29;20035;-69
2023/03/20 00:11:05;;;;;;;2.20;1.00;;;;;;;;;;4954169;29;20053;-69
2023/03/20 00:13:31;;;;;;;3.63;1.00;;;;;;;;;;4954136;29;20735;-69
2023/03/20 00:15:58;;;;;;;3.15;1.02;;;;;;;;;;4954250;29;20480;-69
2023/03/20 00:18:25;;;;;;;3.75;1.45;;;;;;;;;;4954164;29;20031;-69
2023/03/20 00:20:52;;;;;;;4.88;1.40;;;;;;;;;;4954230;29;20027;-69
2023/03/20 00:23:19;;;;;;;3.13;1.45;;;;;;;;;;4954082;29;20023;-69
2023/03/20 00:25:46;;;;;;;4.25;1.33;;;;;;;;;;4953680;29;20417;-69
2023/03/20 00:28:31;;;;;;;3.83;1.33;;;;;;;;;;4953779;29;20020;-69
2023/03/20 00:30:58;;;;;;;2.63;1.50;;;;;;;;;;4953838;29;20090;-69
2023/03/20 00:33:25;;;;;;;4.15;1.40;;;;;;;;;;4953958;29;20031;-69
2023/03/20 00:35:52;;;;;;;3.10;1.25;;;;;;;;;;4947409;29;20028;-69
2023/03/20 00:38:18;;;;;;;2.40;1.33;;;;;;;;;;4934646;29;20477;-69
2023/03/20 00:40:45;;;;;;;5.90;1.27;;;;;;;;;;4934691;29;20032;-70
2023/03/20 00:43:12;;;;;;;2.63;1.15;;;;;;;;;;4934408;29;20031;-69
2023/03/20 00:45:39;;;;;;;3.88;1.50;;;;;;;;;;4917454;29;20501;-69
2023/03/20 00:48:05;;;;;;;5.57;1.08;;;;;;;;;;4934747;29;20475;-69
2023/03/20 00:50:32;;;;;;;5.03;2.30;;;;;;;;;;4934624;29;20039;-69
2023/03/20 00:52:59;;;;;;;3.55;2.00;;;;;;;;;;4934378;29;20027;-69
2023/03/20 00:55:27;;;;;;;4.40;2.28;;;;;;;;;;4934231;29;20052;-69
2023/03/20 00:57:55;;;;;;;3.67;2.10;;;;;;;;;;4934291;29;20028;-69
2023/03/20 01:00:24;;;;;;;3.90;2.30;;;;;;;;;;4934761;29;20036;-69
2023/03/20 01:02:53;;;;;;;4.65;2.15;;;;;;;;;;4934476;29;20035;-69
2023/03/20 01:05:19;;;;;;;3.58;1.48;;;;;;;;;;4934669;29;20086;-69
2023/03/20 01:07:46;;;;;;;2.47;1.58;;;;;;;;;;4933946;29;20024;-70
2023/03/20 01:10:13;;;;;;;2.58;1.52;;;;;;;;;;4936472;29;20040;-69
2023/03/20 01:12:40;;;;;;;3.20;1.27;;;;;;;;;;4938262;29;20016;-69
2023/03/20 01:15:15;;;;;;;3.13;1.52;;;;;;;;;;4921042;29;20098;-70
2023/03/20 01:17:42;;;;;;;3.92;1.65;;;;;;;;;;4936399;29;20027;-69
2023/03/20 01:20:16;;;;;;;7.13;2.10;;;;;;;;;;4937794;29;20485;-69
2023/03/20 01:22:42;;;;;;;2.95;2.00;;;;;;;;;;4937490;29;20392;-69
2023/03/20 01:25:10;;;;;;;6.00;2.17;;;;;;;;;;4937504;29;20042;-70
2023/03/20 01:27:36;;;;;;;4.45;2.05;;;;;;;;;;4937653;29;20024;-70
2023/03/20 01:30:03;;;;;;;8.75;2.55;;;;;;;;;;4940676;29;20031;-69
2023/03/20 01:32:29;;;;;;;2.72;2.10;;;;;;;;;;4956651;29;20035;-69
2023/03/20 01:34:55;;;;;;;4.65;2.47;;;;;;;;;;4956789;29;20039;-69
2023/03/20 01:37:26;;;;;;;3.67;1.77;;;;;;;;;;4956336;29;20024;-69
2023/03/20 01:39:53;;;;;;;4.10;1.58;;;;;;;;;;4956707;29;20023;-69
2023/03/20 01:42:19;;;;;;;3.53;1.50;;;;;;;;;;4939606;29;20035;-69
2023/03/20 01:44:46;;;;;;;3.58;1.77;;;;;;;;;;4956425;29;20488;-69
2023/03/20 01:47:22;;;;;;;2.97;1.30;;;;;;;;;;4956416;29;20527;-69
2023/03/20 01:50:07;;;;;;;4.32;1.63;;;;;;;;;;4956211;29;20496;-69
2023/03/20 01:52:34;;;;;;;3.67;1.30;;;;;;;;;;4956308;29;20054;-69
2023/03/20 01:55:01;;;;;;;2.00;1.63;;;;;;;;;;4956311;29;20027;-69
2023/03/20 01:57:27;;;;;;;2.28;1.17;;;;;;;;;;4956285;29;20027;-69
2023/03/20 01:59:57;;;;;;;4.47;1.65;;;;;;;;;;4956136;29;20023;-69
2023/03/20 02:02:26;;;;;;;6.20;2.38;;;;;;;;;;4956258;29;20391;-69
2023/03/20 02:05:00;;;;;;;3.15;2.33;;;;;;;;;;4956101;29;20027;-69
2023/03/20 02:07:26;;;;;;;4.53;2.38;;;;;;;;;;4955854;29;20388;-69
2023/03/20 02:09:53;;;;;;;7.50;2.78;;;;;;;;;;4956204;29;20042;-69
2023/03/20 02:12:20;;;;;;;6.80;2.50;;;;;;;;;;4956279;29;20023;-69
2023/03/20 02:14:46;;;;;;;4.38;1.92;;;;;;;;;;4956067;29;20414;-69
2023/03/20 02:17:13;;;;;;;5.38;2.00;;;;;;;;;;4956051;29;20388;-69
2023/03/20 02:19:48;;;;;;;3.80;1.73;;;;;;;;;;4956038;29;20023;-69
2023/03/20 02:22:21;;;;;;;3.80;1.50;;;;;;;;;;4954982;28;20029;-69
2023/03/20 02:25:14;;;;;;;3.05;1.58;;;;;;;;;;4955919;29;20030;-69
2023/03/20 02:27:59;;;;;;;4.57;1.70;;;;;;;;;;4955709;29;20081;-69
2023/03/20 02:30:44;;;;;;;6.18;1.75;;;;;;;;;;4955631;29;20062;-68
2023/03/20 02:33:29;;;;;;;2.67;1.55;;;;;;;;;;4955708;29;20066;-69
2023/03/20 02:36:17;;;;;;;5.53;2.38;;;;;;;;;;4938485;29;20039;-69
2023/03/20 02:38:43;;;;;;;5.35;2.00;;;;;;;;;;4955530;29;20028;-69
2023/03/20 02:41:22;;;;;;;4.22;1.40;;;;;;;;;;4954558;29;20054;-69
2023/03/20 02:44:01;;;;;;;1.65;1.00;;;;;;;;;;4955450;29;20035;-69
2023/03/20 02:46:33;;;;;;;6.30;1.35;;;;;;;;;;4955331;29;20415;-69
2023/03/20 02:48:59;;;;;;;1.65;1.00;;;;;;;;;;4955321;29;20108;-69
2023/03/20 02:51:32;;;;;;;2.55;1.20;;;;;;;;;;4955075;29;20042;-69
2023/03/20 02:54:07;;;;;;;1.42;0.90;;;;;;;;;;4955375;29;20027;-69
2023/03/20 02:56:37;;;;;;;4.57;1.70;;;;;;;;;;4955243;29;20019;-69
2023/03/20 02:59:15;;;;;;;1.63;1.07;;;;;;;;;;4955110;29;20023;-69
2023/03/20 03:01:45;;;;;;;2.22;1.40;;;;;;;;;;4955011;29;20023;-69
2023/03/20 03:04:16;;;;;;;2.47;1.35;;;;;;;;;;4954669;29;20492;-69
2023/03/20 03:06:44;;;;;;;3.65;0.95;;;;;;;;;;4955113;29;20041;-69
2023/03/20 03:09:21;;;;;;;3.58;1.50;;;;;;;;;;4955103;29;20046;-69
2023/03/20 03:11:56;;;;;;;3.85;1.90;;;;;;;;;;4954992;29;20027;-69
2023/03/20 03:14:32;;;;;;;3.13;1.50;;;;;;;;;;4955032;29;20027;-69
2023/03/20 03:17:00;;;;;;;2.78;1.50;;;;;;;;;;4955071;29;20029;-69
2023/03/20 03:19:28;;;;;;;2.63;1.90;;;;;;;;;;4954866;29;20027;-69
2023/03/20 03:21:54;;;;;;;3.05;1.40;;;;;;;;;;4954760;29;20362;-69
2023/03/20 03:24:37;;;;;;;1.80;1.20;;;;;;;;;;4954570;29;20031;-69
2023/03/20 03:27:17;;;;;;;4.80;1.50;;;;;;;;;;4954642;29;20039;-70
2023/03/20 03:29:47;;;;;;;4.45;1.52;;;;;;;;;;4954555;29;20024;-69
2023/03/20 03:32:25;;;;;;;4.78;1.35;;;;;;;;;;4954196;28;20102;-69
2023/03/20 03:34:52;;;;;;;4.22;1.55;;;;;;;;;;4954117;29;20027;-69
2023/03/20 03:37:42;;;;;;;1.83;1.20;;;;;;;;;;4954882;29;20452;-69
2023/03/20 03:40:10;;;;;;;1.95;1.30;;;;;;;;;;4914149;29;20032;-69
2023/03/20 03:42:39;;;;;;;2.72;1.73;;;;;;;;;;4914190;29;20047;-69
2023/03/20 03:45:12;;;;;;;2.95;1.15;;;;;;;;;;4914188;29;20441;-69
2023/03/20 03:47:44;;;;;;;3.22;1.50;;;;;;;;;;4913866;29;20034;-69
2023/03/20 03:50:14;;;;;;;1.85;1.10;;;;;;;;;;4914291;29;20048;-69
2023/03/20 03:52:41;;;;;;;2.30;0.95;;;;;;;;;;4914451;29;20016;-69
2023/03/20 03:55:16;;;;;;;2.55;0.70;;;;;;;;;;4914385;29;20036;-69
2023/03/20 03:57:45;;;;;;;4.35;0.73;;;;;;;;;;4913798;29;20050;-69
2023/03/20 04:00:13;;;;;;;1.48;0.70;;;;;;;;;;4913820;29;20095;-69
2023/03/20 04:02:41;;;;;;;2.28;0.73;;;;;;;;;;4914015;29;20038;-69
2023/03/20 04:05:09;;;;;;;0.90;0.65;;;;;;;;;;4913861;29;20509;-69
2023/03/20 04:07:35;;;;;;;1.80;0.73;;;;;;;;;;4913822;29;20031;-69
2023/03/20 04:10:02;;;;;;;2.42;1.02;;;;;;;;;;4914151;29;20059;-69
2023/03/20 04:12:33;;;;;;;3.58;1.45;;;;;;;;;;4913658;29;20040;-69
2023/03/20 04:15:00;;;;;;;1.75;1.10;;;;;;;;;;4913766;29;20481;-69
2023/03/20 04:17:26;;;;;;;4.00;1.40;;;;;;;;;;4939216;29;20539;-69
2023/03/20 04:19:53;;;;;;;4.70;1.45;;;;;;;;;;4953998;29;20023;-69
2023/03/20 04:22:19;;;;;;;5.15;1.83;;;;;;;;;;4954057;29;20031;-69
2023/03/20 04:24:46;;;;;;;4.72;2.10;;;;;;;;;;4954308;29;20027;-69
2023/03/20 04:27:12;;;;;;;2.17;1.52;;;;;;;;;;4953894;29;20503;-69
2023/03/20 04:29:39;;;;;;;4.55;1.90;;;;;;;;;;4954241;29;20023;-69
2023/03/20 04:32:06;;;;;;;3.22;1.42;;;;;;;;;;4953678;29;20529;-69
2023/03/20 04:34:32;;;;;;;2.92;1.13;;;;;;;;;;4953912;29;20488;-69
2023/03/20 04:37:00;;;;;;;2.03;1.27;;;;;;;;;;4953768;29;20488;-69
2023/03/20 04:39:26;;;;;;;2.88;1.27;;;;;;;;;;4954271;29;20026;-69
2023/03/20 04:41:53;;;;;;;4.32;1.38;;;;;;;;;;4953874;29;20020;-69
2023/03/20 04:44:19;;;;;;;4.22;1.30;;;;;;;;;;4954289;28;20546;-69
2023/03/20 04:46:46;;;;;;;2.88;1.52;;;;;;;;;;4957553;29;20038;-69
2023/03/20 04:49:12;;;;;;;3.33;1.45;;;;;;;;;;4957694;29;20045;-69
2023/03/20 04:51:38;;;;;;;2.55;1.70;;;;;;;;;;4957816;29;20059;-69
2023/03/20 04:54:05;;;;;;;2.83;1.13;;;;;;;;;;4957554;29;20383;-69
2023/03/20 04:56:31;;;;;;;6.65;2.05;;;;;;;;;;4957381;29;20031;-69
2023/03/20 04:58:57;;;;;;;3.05;1.85;;;;;;;;;;4957384;29;20027;-69
2023/03/20 05:01:23;;;;;;;3.40;1.73;;;;;;;;;;4957216;29;20035;-69
2023/03/20 05:03:50;;;;;;;1.00;0.88;;;;;;;;;;4957270;29;20038;-69
2023/03/20 05:06:17;;;;;;;4.18;0.90;;;;;;;;;;4957307;29;20089;-69
2023/03/20 05:08:43;;;;;;;3.90;0.70;;;;;;;;;;4957573;29;20027;-69
2023/03/20 05:11:09;;;;;;;3.33;0.65;;;;;;;;;;4957076;29;20023;-69
2023/03/20 05:13:36;;;;;;;3.35;0.70;;;;;;;;;;4957370;29;20046;-70
2023/03/20 05:16:02;;;;;;;3.45;0.68;;;;;;;;;;4956841;29;20035;-69
2023/03/20 05:18:28;;;;;;;2.78;0.80;;;;;;;;;;4940251;29;20027;-69
2023/03/20 05:20:55;;;;;;;7.10;0.80;;;;;;;;;;4956935;29;20019;-69
2023/03/20 05:23:21;;;;;;;2.83;1.00;;;;;;;;;;4957103;29;20550;-69
2023/03/20 05:25:47;;;;;;;2.83;0.82;;;;;;;;;;4956870;29;20125;-69
2023/03/20 05:28:14;;;;;;;3.10;1.00;;;;;;;;;;4956845;29;20020;-69
2023/03/20 05:30:40;;;;;;;2.17;1.10;;;;;;;;;;4956547;29;20043;-69
2023/03/20 05:33:07;;;;;;;3.83;1.52;;;;;;;;;;4956438;29;20035;-69
2023/03/20 05:35:33;;;;;;;2.28;1.17;;;;;;;;;;4956744;29;20416;-69
2023/03/20 05:37:59;;;;;;;4.32;1.30;;;;;;;;;;4956537;29;20019;-69
2023/03/20 05:40:26;;;;;;;4.57;1.70;;;;;;;;;;4956426;29;20043;-69
2023/03/20 05:42:52;;;;;;;3.30;1.38;;;;;;;;;;4939424;29;20023;-69
2023/03/20 05:45:18;;;;;;;1.25;1.00;;;;;;;;;;4956287;29;20075;-69
2023/03/20 05:47:45;;;;;;;2.53;1.23;;;;;;;;;;4956531;29;20077;-69
2023/03/20 05:50:12;;;;;;;1.73;1.40;;;;;;;;;;4956397;29;20082;-69
2023/03/20 05:52:38;;;;;;;2.25;1.45;;;;;;;;;;4956288;29;20031;-69
2023/03/20 05:55:04;;;;;;;4.07;1.40;;;;;;;;;;4956332;29;20030;-69
2023/03/20 05:57:31;;;;;;;3.85;1.10;;;;;;;;;;4955281;28;20037;-69
2023/03/20 05:59:57;;;;;;;2.47;1.27;;;;;;;;;;4956478;29;20027;-69
2023/03/20 06:02:23;;;;;;;1.77;1.35;;;;;;;;;;4956200;29;20024;-69
2023/03/20 06:04:50;;;;;;;4.00;1.38;;;;;;;;;;4956224;29;20023;-70
2023/03/20 06:07:16;;;;;;;2.25;1.17;;;;;;;;;;4956121;29;20033;-69
2023/03/20 06:09:42;;;;;;;1.60;1.00;;;;;;;;;;4955994;29;20027;-69
2023/03/20 06:12:09;;;;;;;3.05;1.23;;;;;;;;;;4956138;29;20020;-69
2023/03/20 06:14:35;;;;;;;3.28;1.10;;;;;;;;;;4955933;29;20023;-69
2023/03/20 06:17:02;;;;;;;1.27;1.10;;;;;;;;;;4955644;29;20035;-69
2023/03/20 06:19:28;;;;;;;3.83;2.00;;;;;;;;;;4955865;29;20057;-69
2023/03/20 06:21:54;;;;;;;2.58;1.50;;;;;;;;;;4955947;29;20361;-69
2023/03/20 06:24:21;;;;;;;1.48;1.30;;;;;;;;;;4955908;29;20042;-69
2023/03/20 06:26:47;;;;;;;2.60;1.50;;;;;;;;;;4954448;29;20047;-69
2023/03/20 06:29:13;;;;;;;6.93;1.52;;;;;;;;;;4955649;29;20023;-69
2023/03/20 06:31:40;;;;;;;2.58;1.42;;;;;;;;;;4955495;29;20504;-69
2023/03/20 06:34:07;;;;;;;3.33;1.38;;;;;;;;;;4955603;29;20042;-69
2023/03/20 06:36:33;;;;;;;2.05;1.00;;;;;;;;;;4955627;29;20026;-69
2023/03/20 06:38:59;;;;;;;3.22;1.08;;;;;;;;;;4955419;29;20395;-69
2023/03/20 06:41:25;;;;;;;2.65;1.40;;;;;;;;;;4955584;29;20023;-69
2023/03/20 06:43:52;;;;;;;2.05;1.20;;;;;;;;;;4955517;29;20385;-69
2023/03/20 06:46:18;;;;;;;4.47;1.85;;;;;;;;;;4955038;29;20043;-69
2023/03/20 06:48:45;;;;;;;5.25;1.95;;;;;;;;;;4955386;29;20476;-69
2023/03/20 06:51:11;;;;;;;4.90;2.28;;;;;;;;;;4955515;29;20030;-69
2023/03/20 06:53:38;;;;;;;3.83;2.17;;;;;;;;;;4955200;29;20038;-69
2023/03/20 06:56:05;;;;;;;5.93;2.60;;;;;;;;;;4955262;29;20031;-69
2023/03/20 06:58:31;;;;;;;9.38;3.33;;;;;;;;;;4955087;29;20391;-69
2023/03/20 07:00:57;;;;;;;4.68;2.47;;;;;;;;;;4955253;29;20404;-69
2023/03/20 07:03:24;;;;;;;7.25;3.60;;;;;;;;;;4955019;29;20020;-69
2023/03/20 07:05:50;;;;;;;7.13;3.78;;;;;;;;;;4933699;29;20496;-69
2023/03/20 07:08:17;;;;;;;5.93;2.85;;;;;;;;;;4942615;29;20023;-70
2023/03/20 07:10:43;;;;;;;6.80;2.70;;;;;;;;;;4954310;29;20107;-68
2023/03/20 07:13:11;;;;;;;3.95;1.60;;;;;;;;;;4954055;29;20042;-68
2023/03/20 07:15:37;;;;;;;2.92;1.30;;;;;;;;;;4954985;29;20030;-69
2023/03/20 07:18:03;;;;;;;3.28;0.80;;;;;;;;;;4953071;29;20027;-68
2023/03/20 07:20:30;;;;;;;1.33;0.70;;;;;;;;;;4942230;29;20523;-69
2023/03/20 07:22:56;;;;;;;2.15;0.80;;;;;;;;;;4926372;29;20047;-69
2023/03/20 07:25:22;;;;;;;3.38;0.95;;;;;;;;;;4923973;29;20032;-68
2023/03/20 07:27:49;;;;;;;6.07;1.10;;;;;;;;;;4918724;29;20028;-69
2023/03/20 07:30:17;;;;;;;1.85;1.15;;;;;;;;;;4935323;29;20495;-68
2023/03/20 07:32:44;;;;;;;2.70;1.00;;;;;;;;;;4938247;29;20035;-68
2023/03/20 07:35:12;;;;;;;4.40;1.30;;;;;;;;;;4943279;29;20023;-68
2023/03/20 07:37:38;;;;;;;5.93;1.17;;;;;;;;;;4939657;29;20055;-69
2023/03/20 07:40:05;;;;;;;4.45;1.00;;;;;;;;;;4944179;29;20020;-68
2023/03/20 07:42:32;;;;;;;6.95;1.42;;;;;;;;;;4937842;29;20666;-68
2023/03/20 07:44:58;;;;;;;3.03;1.00;;;;;;;;;;4937610;29;20035;-68
2023/03/20 07:47:24;;;;;;;2.20;0.90;;;;;;;;;;4940656;29;20038;-67
2023/03/20 07:49:51;;;;;;;2.33;0.80;;;;;;;;;;4934004;29;20023;-68
2023/03/20 07:52:17;;;;;;;1.52;0.82;;;;;;;;;;4934858;29;20062;-68
2023/03/20 07:54:43;;;;;;;3.13;1.02;;;;;;;;;;4934223;29;20028;-68
2023/03/20 07:57:10;;;;;;;3.67;0.85;;;;;;;;;;4933929;29;20039;-68
2023/03/20 07:59:36;;;;;;;4.85;0.95;;;;;;;;;;4934372;29;20027;-69
2023/03/20 08:02:02;;;;;;;3.97;1.13;;;;;;;;;;4933287;29;20103;-68
2023/03/20 08:04:29;;;;;;;2.17;0.90;;;;;;;;;;4933683;29;20049;-70
2023/03/20 08:06:55;;;;;;;2.00;0.93;;;;;;;;;;4938896;29;20051;-73
2023/03/20 08:09:21;;;;;;;3.45;0.98;;;;;;;;;;4937274;29;20035;-70
2023/03/20 08:11:48;;;;;;;1.90;0.68;;;;;;;;;;4936878;29;20447;-69
2023/03/20 08:14:14;;;;;;;2.85;1.10;;;;;;;;;;4933201;29;20031;-70
2023/03/20 08:16:40;;;;;;;2.90;1.30;;;;;;;;;;4933122;29;20031;-70
2023/03/20 08:19:07;;;;;;;1.90;0.88;;;;;;;;;;4932285;29;20030;-67
2023/03/20 08:21:33;;;;;;;7.70;1.20;;;;;;;;;;4947059;29;20050;-67
2023/03/20 08:24:00;;;;;;;3.28;0.90;;;;;;;;;;4947089;29;20395;-68
2023/03/20 08:26:26;;;;;;;2.75;0.90;;;;;;;;;;4933567;29;20043;-70
2023/03/20 08:28:52;;;;;;;2.78;0.77;;;;;;;;;;4933378;29;20019;-70
2023/03/20 08:31:19;;;;;;;2.95;0.90;;;;;;;;;;4946419;29;20419;-68
2023/03/20 08:33:46;;;;;;;2.47;0.88;;;;;;;;;;4949675;29;20031;-69
2023/03/20 08:36:14;;;;;;;6.20;0.88;;;;;;;;;;4933195;29;20036;-68
2023/03/20 08:38:41;;;;;;;2.00;1.00;;;;;;;;;;4933045;29;20152;-68
2023/03/20 08:41:07;;;;;;;1.30;0.73;;;;;;;;;;4933176;29;20028;-69
2023/03/20 08:43:35;;;;;;;2.60;1.00;;;;;;;;;;4936817;29;20026;-68
2023/03/20 08:46:01;;;;;;;4.18;0.90;;;;;;;;;;4942254;29;20527;-67
2023/03/20 08:48:27;;;;;;;7.85;1.23;;;;;;;;;;4952392;29;20045;-67
2023/03/20 08:50:54;;;;;;;2.35;1.20;;;;;;;;;;4932838;29;20035;-67
2023/03/20 08:53:20;;;;;;;3.63;1.05;;;;;;;;;;4933170;29;20098;-67
2023/03/20 08:55:48;;;;;;;2.75;0.90;;;;;;;;;;4932931;29;20027;-68
2023/03/20 08:58:14;;;;;;;4.32;1.50;;;;;;;;;;4933667;29;20035;-67
2023/03/20 09:00:41;;;;;;;3.42;1.10;;;;;;;;;;4933184;29;20501;-71
2023/03/20 09:03:07;;;;;;;2.63;0.98;;;;;;;;;;4933129;29;20038;-68
2023/03/20 09:05:36;;;;;;;3.30;1.00;;;;;;;;;;4951312;29;20153;-68
2023/03/20 09:08:02;;;;;;;4.15;1.10;;;;;;;;;;4952105;29;20050;-68
2023/03/20 09:10:29;;;;;;;2.22;1.10;;;;;;;;;;4950791;29;20033;-67
2023/03/20 09:12:56;;;;;;;3.05;1.20;;;;;;;;;;4944007;29;20032;-72
2023/03/20 09:15:22;;;;;;;3.03;1.30;;;;;;;;;;4930452;29;20042;-72
2023/03/20 09:17:48;;;;;;;3.13;1.00;;;;;;;;;;4932712;29;20032;-72
2023/03/20 09:20:15;;;;;;;2.97;1.10;;;;;;;;;;4944389;29;20401;-72
2023/03/20 09:22:42;;;;;;;1.98;1.00;;;;;;;;;;4933192;29;20030;-71
2023/03/20 09:25:09;;;;;;;2.72;0.95;;;;;;;;;;4939989;29;20511;-72
2023/03/20 09:27:35;;;;;;;2.38;0.80;;;;;;;;;;4932586;29;20393;-73
2023/03/20 09:30:01;;;;;;;3.13;0.82;;;;;;;;;;4935842;28;20030;-72
2023/03/20 09:32:28;;;;;;;2.22;1.00;;;;;;;;;;4923648;29;20035;-72
2023/03/20 09:34:55;;;;;;;1.75;0.95;;;;;;;;;;4936222;29;20034;-73
2023/03/20 09:37:21;;;;;;;2.38;1.10;;;;;;;;;;4935806;29;20036;-71
2023/03/20 09:39:47;;;;;;;1.70;0.90;;;;;;;;;;4935866;29;20086;-71
2023/03/20 09:42:17;;;;;;;1.85;1.00;;;;;;;;;;4936105;29;20027;-69
2023/03/20 09:44:46;;;;;;;4.10;1.00;;;;;;;;;;4935436;29;20040;-68
2023/03/20 09:47:12;;;;;;;2.20;0.93;;;;;;;;;;4935804;29;20051;-70
2023/03/20 09:49:41;;;;;;;2.50;0.82;;;;;;;;;;4935925;29;20050;-71
2023/03/20 09:52:26;;;;;;;2.97;0.90;;;;;;;;;;4935516;29;20409;-70
2023/03/20 09:54:55;;;;;;;2.58;0.73;;;;;;;;;;4934494;29;20039;-69
2023/03/20 09:57:24;;;;;;;1.75;0.90;;;;;;;;;;4932517;29;20053;-68
2023/03/20 09:59:53;;;;;;;2.25;0.80;;;;;;;;;;4920846;29;20508;-69
2023/03/20 10:02:25;;;;;;;1.10;0.80;;;;;;;;;;4928147;29;20027;-69
2023/03/20 10:04:53;;;;;;;2.70;0.90;;;;;;;;;;4896614;29;20020;-70
2023/03/20 10:07:19;;;;;;;2.28;0.88;;;;;;;;;;4897478;29;20414;-70
2023/03/20 10:09:46;;;;;;;2.17;0.70;;;;;;;;;;4928331;29;20054;-68
2023/03/20 10:12:20;;;;;;;1.92;0.85;;;;;;;;;;4935193;29;20082;-71
2023/03/20 10:14:56;;;;;;;1.30;0.70;;;;;;;;;;4920477;29;20023;-70
2023/03/20 10:17:25;;;;;;;3.30;0.70;;;;;;;;;;4921011;29;20568;-72
2023/03/20 10:19:56;;;;;;;2.40;0.80;;;;;;;;;;4928761;29;20046;-70
2023/03/20 10:22:28;;;;;;;2.22;0.90;;;;;;;;;;4897854;29;20043;-72
2023/03/20 10:24:57;;;;;;;1.55;0.68;;;;;;;;;;4913371;29;20024;-72
2023/03/20 10:27:46;;;;;;;3.05;1.20;;;;;;;;;;4927363;29;20050;-71
2023/03/20 10:30:13;;;;;;;2.15;0.65;;;;;;;;;;4920102;29;20038;-69
2023/03/20 10:32:42;;;;;;;1.92;0.80;;;;;;;;;;4926291;29;20508;-69
2023/03/20 10:35:17;;;;;;;2.40;0.85;;;;;;;;;;4926060;29;20040;-68
2023/03/20 10:37:59;;;;;;;2.63;1.27;;;;;;;;;;4940779;29;20032;-68
2023/03/20 10:40:26;;;;;;;2.30;0.90;;;;;;;;;;4935290;29;20028;-67
2023/03/20 10:42:55;;;;;;;3.08;1.08;;;;;;;;;;4949197;28;20027;-69
2023/03/20 10:45:48;;;;;;;2.13;0.77;;;;;;;;;;4953209;29;20028;-69
2023/03/20 10:48:17;;;;;;;2.53;1.10;;;;;;;;;;4951241;29;20393;-68
2023/03/20 10:50:46;;;;;;;2.30;0.93;;;;;;;;;;4953363;29;20028;-72
2023/03/20 10:53:28;;;;;;;2.38;0.85;;;;;;;;;;4950365;29;20028;-71
2023/03/20 10:55:57;;;;;;;3.28;0.98;;;;;;;;;;4948010;29;20035;-71
2023/03/20 10:58:26;;;;;;;2.05;0.90;;;;;;;;;;4940272;29;20019;-70
2023/03/20 11:00:54;;;;;;;3.70;0.70;;;;;;;;;;4940735;29;20023;-68
2023/03/20 11:03:22;;;;;;;2.72;1.00;;;;;;;;;;4953469;29;20035;-68
2023/03/20 11:05:51;;;;;;;2.35;0.98;;;;;;;;;;4953462;29;20027;-70
2023/03/20 11:08:21;;;;;;;2.42;0.77;;;;;;;;;;4937269;29;20027;-67
2023/03/20 11:10:56;;;;;;;5.38;1.08;;;;;;;;;;4934234;29;20388;-67
2023/03/20 11:13:42;;;;;;;2.17;0.77;;;;;;;;;;4932115;29;20507;-67
2023/03/20 11:16:08;;;;;;;2.15;0.80;;;;;;;;;;4934019;29;20028;-66
2023/03/20 11:18:35;;;;;;;4.00;1.10;;;;;;;;;;4933953;29;20400;-66
2023/03/20 11:21:02;;;;;;;4.45;0.93;;;;;;;;;;4934222;29;20030;-67
2023/03/20 11:23:35;;;;;;;5.30;1.00;;;;;;;;;;4934489;29;20032;-67
2023/03/20 11:26:03;;;;;;;2.08;0.90;;;;;;;;;;4933968;29;20035;-67
2023/03/20 11:28:36;;;;;;;2.88;1.23;;;;;;;;;;4934418;29;20396;-67
2023/03/20 11:31:05;;;;;;;3.13;0.85;;;;;;;;;;4945222;29;20125;-67
2023/03/20 11:33:36;;;;;;;2.13;0.90;;;;;;;;;;4952993;29;20027;-67
2023/03/20 11:36:02;;;;;;;;;;;;;;;;;;4953389;29;20027;-67
2023/03/20 11:38:31;;;;;;;3.22;1.00;;;;;;;;;;4953019;29;19976;-67
2023/03/20 11:40:57;;;;;;;4.03;1.10;;;;;;;;;;4952999;29;20020;-67
2023/03/20 11:43:25;;;;;;;1.75;0.90;;;;;;;;;;4953180;29;20037;-67
2023/03/20 11:45:56;;;;;;;1.70;0.90;;;;;;;;;;4952709;29;20039;-68
2023/03/20 11:48:44;;;;;;;2.13;0.88;;;;;;;;;;4953221;29;20027;-67
2023/03/20 11:51:14;;;;;;;2.25;1.65;;;;;;;;;;4953553;29;20033;-67
2023/03/20 11:53:46;;;;;;;4.17;1.67;;;;;;;;;;4952544;28;20034;-67
2023/03/20 11:56:24;;;;;;;1.90;0.85;;;;;;;;;;4952768;29;20259;-67
2023/03/20 11:58:55;;;;;;;3.20;1.08;;;;;;;;;;4936017;29;20031;-67
2023/03/20 12:01:21;;;;;;;3.60;1.00;;;;;;;;;;4953015;29;20022;-67
2023/03/20 12:03:55;;;;;;;1.55;0.90;;;;;;;;;;4954059;29;20041;-67
2023/03/20 12:06:22;;;;;;;3.22;1.08;;;;;;;;;;4953620;29;20507;-67
2023/03/20 12:09:11;;;;;;;3.00;1.00;;;;;;;;;;4953987;29;20023;-67
2023/03/20 12:11:42;;;;;;;2.00;1.00;;;;;;;;;;4954142;29;20018;-67
2023/03/20 12:14:17;;;;;;;2.10;1.10;;;;;;;;;;4953750;29;20034;-67
2023/03/20 12:16:44;;;;;;;2.42;1.20;;;;;;;;;;4953593;29;20030;-67
2023/03/20 12:19:16;;;;;;;9.85;0.95;;;;;;;;;;4953643;29;20035;-70
2023/03/20 12:21:59;;;;;;;3.55;1.50;;;;;;;;;;4953419;29;20031;-68
2023/03/20 12:24:29;;;;;;;2.92;1.05;;;;;;;;;;4938305;29;20031;-69
2023/03/20 12:27:00;;;;;;;3.22;0.98;;;;;;;;;;4933413;29;20039;-69
2023/03/20 12:29:30;;;;;;;3.42;1.10;;;;;;;;;;4933211;29;20071;-69
2023/03/20 12:32:00;;;;;;;2.72;0.93;;;;;;;;;;4948443;29;20054;-68
2023/03/20 12:34:32;;;;;;;1.90;1.00;;;;;;;;;;4933532;29;20083;-69
2023/03/20 12:36:59;;;;;;;2.25;1.08;;;;;;;;;;4918364;29;20553;-70
2023/03/20 12:39:28;;;;;;;2.10;1.10;;;;;;;;;;4910738;29;20038;-69
2023/03/20 12:41:54;;;;;;;2.65;0.85;;;;;;;;;;4933622;29;20023;-68
2023/03/20 12:44:25;;;;;;;2.47;1.00;;;;;;;;;;4932396;29;20031;-70
2023/03/20 12:47:00;;;;;;;1.33;0.90;;;;;;;;;;4933383;29;20136;-70
2023/03/20 12:49:30;;;;;;;2.85;0.98;;;;;;;;;;4933329;29;20027;-70
2023/03/20 12:52:08;;;;;;;4.35;1.10;;;;;;;;;;4933483;29;20396;-71
2023/03/20 12:54:51;;;;;;;3.00;1.00;;;;;;;;;;4929146;29;20038;-70
2023/03/20 12:57:26;;;;;;;2.13;1.00;;;;;;;;;;4931826;29;20109;-71
2023/03/20 13:00:11;;;;;;;2.33;0.93;;;;;;;;;;4908350;29;20051;-70
2023/03/20 13:02:46;;;;;;;2.72;1.10;;;;;;;;;;4932837;29;20027;-70
2023/03/20 13:05:28;;;;;;;6.35;1.13;;;;;;;;;;4916592;29;20028;-71
2023/03/20 13:08:22;;;;;;;3.83;1.00;;;;;;;;;;4917701;29;20047;-70
2023/03/20 13:11:00;;;;;;;1.30;0.90;;;;;;;;;;4928134;29;20031;-69
2023/03/20 13:13:45;;;;;;;1.42;0.88;;;;;;;;;;4933662;29;20074;-72
2023/03/20 13:16:11;;;;;;;4.22;0.80;;;;;;;;;;4933650;29;20027;-67
2023/03/20 13:18:47;;;;;;;2.20;1.00;;;;;;;;;;4936661;29;20094;-68
2023/03/20 13:21:18;;;;;;;1.58;0.85;;;;;;;;;;4936549;29;20039;-72
2023/03/20 13:23:56;;;;;;;1.58;1.08;;;;;;;;;;4936219;29;20032;-70
2023/03/20 13:26:25;;;;;;;1.35;1.10;;;;;;;;;;4936037;29;20516;-69
2023/03/20 13:28:59;;;;;;;3.75;1.17;;;;;;;;;;4936116;29;20024;-72
2023/03/20 13:31:35;;;;;;;2.53;1.08;;;;;;;;;;4935652;29;20051;-72
2023/03/20 13:34:02;;;;;;;1.13;0.82;;;;;;;;;;4935489;29;20024;-73
2023/03/20 13:36:28;;;;;;;1.77;0.90;;;;;;;;;;4935495;29;20035;-72
2023/03/20 13:39:00;;;;;;;1.70;1.00;;;;;;;;;;4935973;29;20035;-72
2023/03/20 13:41:26;;;;;;;1.92;1.00;;;;;;;;;;4935916;29;20409;-72
2023/03/20 13:43:56;;;;;;;2.03;0.98;;;;;;;;;;4934492;29;20598;-72
2023/03/20 13:46:22;;;;;;;3.17;1.00;;;;;;;;;;4936066;29;20042;-72
2023/03/20 13:48:50;;;;;;;1.48;1.00;;;;;;;;;;4935967;29;20489;-71
2023/03/20 13:51:16;;;;;;;3.80;1.10;;;;;;;;;;4936342;29;20027;-73
2023/03/20 13:54:00;;;;;;;2.05;0.90;;;;;;;;;;4934672;29;20036;-73
2023/03/20 13:56:32;;;;;;;3.50;1.02;;;;;;;;;;4935216;29;20039;-71
2023/03/20 13:59:05;;;;;;;1.95;0.85;;;;;;;;;;4937167;29;20458;-70
2023/03/20 14:01:32;;;;;;;1.98;0.85;;;;;;;;;;4929672;29;20032;-70
2023/03/20 14:03:59;;;;;;;1.25;0.70;;;;;;;;;;4936068;29;20030;-70
2023/03/20 14:06:31;;;;;;;1.83;0.88;;;;;;;;;;4927532;29;20028;-71
2023/03/20 14:08:58;;;;;;;4.18;0.80;;;;;;;;;;4935712;29;20393;-72
2023/03/20 14:11:31;;;;;;;2.67;0.88;;;;;;;;;;4935010;29;20486;-73
2023/03/20 14:14:00;;;;;;;1.27;0.90;;;;;;;;;;4927675;29;20400;-71
2023/03/20 14:16:27;;;;;;;2.30;1.10;;;;;;;;;;4934747;29;20492;-72
2023/03/20 14:19:05;;;;;;;1.55;0.98;;;;;;;;;;4933877;29;20058;-72
2023/03/20 14:21:33;;;;;;;2.22;1.17;;;;;;;;;;4926502;29;20024;-72
2023/03/20 14:24:02;;;;;;;3.08;1.70;;;;;;;;;;4934890;29;20036;-72
2023/03/20 14:26:29;;;;;;;2.28;1.40;;;;;;;;;;4935026;29;20040;-72
2023/03/20 14:29:01;;;;;;;2.03;1.20;;;;;;;;;;4934395;29;20028;-72
2023/03/20 14:31:33;;;;;;;1.88;0.80;;;;;;;;;;4934585;29;20047;-74
2023/03/20 14:34:14;;;;;;;2.42;0.90;;;;;;;;;;4916239;29;20030;-72
2023/03/20 14:36:41;;;;;;;1.73;0.80;;;;;;;;;;4914898;29;20040;-71
2023/03/20 14:39:10;;;;;;;1.52;1.00;;;;;;;;;;4934391;29;20040;-71
2023/03/20 14:41:55;;;;;;;2.13;1.13;;;;;;;;;;4921408;29;20028;-72
2023/03/20 14:44:26;;;;;;;3.03;0.98;;;;;;;;;;4915548;29;20035;-72
2023/03/20 14:47:00;;;;;;;2.03;0.90;;;;;;;;;;4915612;29;20036;-70
2023/03/20 14:49:32;;;;;;;4.50;1.15;;;;;;;;;;4925764;29;20485;-70
2023/03/20 14:52:17;;;;;;;1.67;0.80;;;;;;;;;;4934564;29;20020;-70
2023/03/20 14:54:51;;;;;;;2.42;0.80;;;;;;;;;;4934210;29;20039;-71
2023/03/20 14:57:21;;;;;;;2.08;0.70;;;;;;;;;;4930385;29;20020;-69